sensor_id;sensor_type;location;lat;lon;timestamp;P1;durP1;ratioP1;P2;durP2;ratioP2
2213;SDS011;1113;42.018;23.986;2023-03-20T00:01:15;19.08;;;11.57;;
2213;SDS011;1113;42.018;23.986;2023-03-20T00:03:43;19.85;;;12.48;;
2213;SDS011;1113;42.018;23.986;2023-03-20T00:06:12;16.75;;;12.07;;
2213;SDS011;1113;42.018;23.986;2023-03-20T00:08:41;17.52;;;10.77;;
2213;SDS011;1113;42.018;23.986;2023-03-20T00:11:15;14.40;;;11.30;;
2213;SDS011;1113;42.018;23.986;2023-03-20T00:13:53;16.15;;;11.57;;
2213;SDS011;1113;42.018;23.986;2023-03-20T00:16:23;14.50;;;10.20;;
2213;SDS011;1113;42.018;23.986;2023-03-20T00:18:55;17.83;;;11.82;;
2213;SDS011;1113;42.018;23.986;2023-03-20T00:21:21;17.33;;;11.48;;
2213;SDS011;1113;42.018;23.986;2023-03-20T00:23:48;17.80;;;11.40;;
2213;SDS011;1113;42.018;23.986;2023-03-20T00:26:16;20.40;;;11.75;;
2213;SDS011;1113;42.018;23.986;2023-03-20T00:28:44;16.40;;;11.02;;
2213;SDS011;1113;42.018;23.986;2023-03-20T00:31:17;14.77;;;10.18;;
2213;SDS011;1113;42.018;23.986;2023-03-20T00:33:52;16.48;;;10.15;;
2213;SDS011;1113;42.018;23.986;2023-03-20T00:36:21;17.70;;;10.40;;
2213;SDS011;1113;42.018;23.986;2023-03-20T00:38:48;19.05;;;10.52;;
2213;SDS011;1113;42.018;23.986;2023-03-20T00:41:20;15.18;;;10.75;;
2213;SDS011;1113;42.018;23.986;2023-03-20T00:43:49;11.88;;;8.98;;
2213;SDS011;1113;42.018;23.986;2023-03-20T00:46:18;17.23;;;10.18;;
2213;SDS011;1113;42.018;23.986;2023-03-20T00:48:45;21.30;;;13.85;;
2213;SDS011;1113;42.018;23.986;2023-03-20T00:51:14;18.80;;;13.13;;
2213;SDS011;1113;42.018;23.986;2023-03-20T00:53:41;15.65;;;11.32;;
2213;SDS011;1113;42.018;23.986;2023-03-20T00:56:12;33.13;;;19.27;;
2213;SDS011;1113;42.018;23.986;2023-03-20T00:58:54;27.13;;;16.58;;
2213;SDS011;1113;42.018;23.986;2023-03-20T01:01:20;28.95;;;17.95;;
2213;SDS011;1113;42.018;23.986;2023-03-20T01:03:48;16.17;;;11.25;;
2213;SDS011;1113;42.018;23.986;2023-03-20T01:06:16;37.78;;;22.15;;
2213;SDS011;1113;42.018;23.986;2023-03-20T01:08:43;19.88;;;13.07;;
2213;SDS011;1113;42.018;23.986;2023-03-20T01:11:13;19.65;;;14.02;;
2213;SDS011;1113;42.018;23.986;2023-03-20T01:13:42;31.30;;;18.63;;
2213;SDS011;1113;42.018;23.986;2023-03-20T01:16:13;23.75;;;14.85;;
2213;SDS011;1113;42.018;23.986;2023-03-20T01:18:45;16.30;;;11.85;;
2213;SDS011;1113;42.018;23.986;2023-03-20T01:21:12;21.35;;;16.95;;
2213;SDS011;1113;42.018;23.986;2023-03-20T01:23:40;17.73;;;11.13;;
2213;SDS011;1113;42.018;23.986;2023-03-20T01:26:11;18.67;;;11.88;;
2213;SDS011;1113;42.018;23.986;2023-03-20T01:28:46;25.38;;;15.77;;
2213;SDS011;1113;42.018;23.986;2023-03-20T01:31:14;22.80;;;14.98;;
2213;SDS011;1113;42.018;23.986;2023-03-20T01:33:42;19.20;;;11.32;;
2213;SDS011;1113;42.018;23.986;2023-03-20T01:36:09;18.58;;;12.38;;
2213;SDS011;1113;42.018;23.986;2023-03-20T01:38:37;23.08;;;12.45;;
2213;SDS011;1113;42.018;23.986;2023-03-20T01:41:07;20.15;;;12.45;;
2213;SDS011;1113;42.018;23.986;2023-03-20T01:43:37;19.55;;;12.75;;
2213;SDS011;1113;42.018;23.986;2023-03-20T01:46:12;21.77;;;14.88;;
2213;SDS011;1113;42.018;23.986;2023-03-20T01:51:34;20.65;;;12.57;;
2213;SDS011;1113;42.018;23.986;2023-03-20T01:54:03;21.10;;;14.35;;
2213;SDS011;1113;42.018;23.986;2023-03-20T01:56:36;20.85;;;11.77;;
2213;SDS011;1113;42.018;23.986;2023-03-20T01:59:08;18.73;;;12.38;;
2213;SDS011;1113;42.018;23.986;2023-03-20T02:01:39;15.60;;;10.00;;
2213;SDS011;1113;42.018;23.986;2023-03-20T02:04:08;14.68;;;10.20;;
2213;SDS011;1113;42.018;23.986;2023-03-20T02:06:36;19.83;;;10.65;;
2213;SDS011;1113;42.018;23.986;2023-03-20T02:09:04;14.50;;;9.80;;
2213;SDS011;1113;42.018;23.986;2023-03-20T02:11:31;14.95;;;8.18;;
2213;SDS011;1113;42.018;23.986;2023-03-20T02:14:00;12.13;;;9.18;;
2213;SDS011;1113;42.018;23.986;2023-03-20T02:16:27;14.57;;;8.50;;
2213;SDS011;1113;42.018;23.986;2023-03-20T02:18:55;18.40;;;11.75;;
2213;SDS011;1113;42.018;23.986;2023-03-20T02:25:03;16.55;;;10.43;;
2213;SDS011;1113;42.018;23.986;2023-03-20T02:28:13;15.00;;;10.15;;
2213;SDS011;1113;42.018;23.986;2023-03-20T02:31:01;21.50;;;13.55;;
2213;SDS011;1113;42.018;23.986;2023-03-20T02:33:57;17.13;;;11.43;;
2213;SDS011;1113;42.018;23.986;2023-03-20T02:40:01;25.27;;;16.23;;
2213;SDS011;1113;42.018;23.986;2023-03-20T02:42:37;26.25;;;17.40;;
2213;SDS011;1113;42.018;23.986;2023-03-20T02:45:12;25.63;;;16.65;;
2213;SDS011;1113;42.018;23.986;2023-03-20T02:47:45;30.13;;;17.98;;
2213;SDS011;1113;42.018;23.986;2023-03-20T02:50:18;30.98;;;18.27;;
2213;SDS011;1113;42.018;23.986;2023-03-20T02:52:55;28.40;;;18.08;;
2213;SDS011;1113;42.018;23.986;2023-03-20T02:55:31;31.08;;;20.27;;
2213;SDS011;1113;42.018;23.986;2023-03-20T02:58:06;31.85;;;21.92;;
2213;SDS011;1113;42.018;23.986;2023-03-20T03:00:41;37.47;;;21.95;;
2213;SDS011;1113;42.018;23.986;2023-03-20T03:03:14;29.48;;;19.85;;
2213;SDS011;1113;42.018;23.986;2023-03-20T03:05:50;36.40;;;21.83;;
2213;SDS011;1113;42.018;23.986;2023-03-20T03:08:21;32.33;;;21.17;;
2213;SDS011;1113;42.018;23.986;2023-03-20T03:10:53;30.80;;;20.83;;
2213;SDS011;1113;42.018;23.986;2023-03-20T03:13:25;29.13;;;18.85;;
2213;SDS011;1113;42.018;23.986;2023-03-20T03:15:55;31.45;;;19.55;;
2213;SDS011;1113;42.018;23.986;2023-03-20T03:18:29;29.50;;;19.70;;
2213;SDS011;1113;42.018;23.986;2023-03-20T03:21:00;29.70;;;18.30;;
2213;SDS011;1113;42.018;23.986;2023-03-20T03:23:31;31.13;;;18.55;;
2213;SDS011;1113;42.018;23.986;2023-03-20T03:26:05;79.68;;;48.22;;
2213;SDS011;1113;42.018;23.986;2023-03-20T03:28:33;77.25;;;48.05;;
2213;SDS011;1113;42.018;23.986;2023-03-20T03:31:04;46.65;;;32.83;;
2213;SDS011;1113;42.018;23.986;2023-03-20T03:33:33;24.50;;;17.70;;
2213;SDS011;1113;42.018;23.986;2023-03-20T03:36:05;19.83;;;13.75;;
2213;SDS011;1113;42.018;23.986;2023-03-20T03:38:41;27.27;;;18.25;;
2213;SDS011;1113;42.018;23.986;2023-03-20T03:41:19;28.33;;;20.48;;
2213;SDS011;1113;42.018;23.986;2023-03-20T03:43:51;40.03;;;27.23;;
2213;SDS011;1113;42.018;23.986;2023-03-20T03:46:24;25.95;;;17.80;;
2213;SDS011;1113;42.018;23.986;2023-03-20T03:48:58;29.08;;;18.08;;
2213;SDS011;1113;42.018;23.986;2023-03-20T03:51:28;28.77;;;21.08;;
2213;SDS011;1113;42.018;23.986;2023-03-20T03:54:02;26.52;;;16.92;;
2213;SDS011;1113;42.018;23.986;2023-03-20T03:56:32;26.65;;;15.85;;
2213;SDS011;1113;42.018;23.986;2023-03-20T03:59:03;21.70;;;15.40;;
2213;SDS011;1113;42.018;23.986;2023-03-20T04:01:35;20.67;;;15.00;;
2213;SDS011;1113;42.018;23.986;2023-03-20T04:04:08;22.80;;;16.08;;
2213;SDS011;1113;42.018;23.986;2023-03-20T04:06:38;27.60;;;18.42;;
2213;SDS011;1113;42.018;23.986;2023-03-20T04:09:07;20.02;;;16.05;;
2213;SDS011;1113;42.018;23.986;2023-03-20T04:11:34;21.10;;;15.55;;
2213;SDS011;1113;42.018;23.986;2023-03-20T04:14:04;26.08;;;18.20;;
2213;SDS011;1113;42.018;23.986;2023-03-20T04:16:31;27.20;;;18.67;;
2213;SDS011;1113;42.018;23.986;2023-03-20T04:18:58;20.42;;;14.80;;
2213;SDS011;1113;42.018;23.986;2023-03-20T04:21:25;19.58;;;15.00;;
2213;SDS011;1113;42.018;23.986;2023-03-20T04:23:52;23.60;;;16.67;;
2213;SDS011;1113;42.018;23.986;2023-03-20T04:26:20;21.67;;;17.70;;
2213;SDS011;1113;42.018;23.986;2023-03-20T04:28:47;21.77;;;16.13;;
2213;SDS011;1113;42.018;23.986;2023-03-20T04:31:14;25.27;;;16.85;;
2213;SDS011;1113;42.018;23.986;2023-03-20T04:33:42;29.25;;;20.95;;
2213;SDS011;1113;42.018;23.986;2023-03-20T04:36:08;45.20;;;28.00;;
2213;SDS011;1113;42.018;23.986;2023-03-20T04:38:36;47.00;;;30.27;;
2213;SDS011;1113;42.018;23.986;2023-03-20T04:41:02;22.30;;;15.30;;
2213;SDS011;1113;42.018;23.986;2023-03-20T04:43:33;29.83;;;18.90;;
2213;SDS011;1113;42.018;23.986;2023-03-20T04:46:00;48.72;;;33.38;;
2213;SDS011;1113;42.018;23.986;2023-03-20T04:48:27;111.32;;;64.88;;
2213;SDS011;1113;42.018;23.986;2023-03-20T04:50:53;67.35;;;41.70;;
2213;SDS011;1113;42.018;23.986;2023-03-20T04:53:20;77.35;;;46.47;;
2213;SDS011;1113;42.018;23.986;2023-03-20T04:55:47;74.03;;;44.67;;
2213;SDS011;1113;42.018;23.986;2023-03-20T04:58:15;75.35;;;43.88;;
2213;SDS011;1113;42.018;23.986;2023-03-20T05:00:51;71.05;;;40.85;;
2213;SDS011;1113;42.018;23.986;2023-03-20T05:03:23;71.03;;;40.63;;
2213;SDS011;1113;42.018;23.986;2023-03-20T05:05:52;69.15;;;43.35;;
2213;SDS011;1113;42.018;23.986;2023-03-20T05:08:19;53.10;;;35.40;;
2213;SDS011;1113;42.018;23.986;2023-03-20T05:10:46;56.72;;;35.90;;
2213;SDS011;1113;42.018;23.986;2023-03-20T05:13:13;48.50;;;35.00;;
2213;SDS011;1113;42.018;23.986;2023-03-20T05:15:40;45.40;;;34.33;;
2213;SDS011;1113;42.018;23.986;2023-03-20T05:18:08;68.47;;;41.33;;
2213;SDS011;1113;42.018;23.986;2023-03-20T05:20:45;55.58;;;40.63;;
2213;SDS011;1113;42.018;23.986;2023-03-20T05:23:20;67.82;;;42.40;;
2213;SDS011;1113;42.018;23.986;2023-03-20T05:25:47;51.13;;;38.17;;
2213;SDS011;1113;42.018;23.986;2023-03-20T05:28:14;52.88;;;35.10;;
2213;SDS011;1113;42.018;23.986;2023-03-20T05:30:41;49.42;;;35.80;;
2213;SDS011;1113;42.018;23.986;2023-03-20T05:33:09;49.45;;;34.97;;
2213;SDS011;1113;42.018;23.986;2023-03-20T05:35:36;35.65;;;26.35;;
2213;SDS011;1113;42.018;23.986;2023-03-20T05:38:02;29.25;;;21.92;;
2213;SDS011;1113;42.018;23.986;2023-03-20T05:40:29;24.98;;;18.58;;
2213;SDS011;1113;42.018;23.986;2023-03-20T05:42:56;19.33;;;15.32;;
2213;SDS011;1113;42.018;23.986;2023-03-20T05:45:23;20.45;;;16.55;;
2213;SDS011;1113;42.018;23.986;2023-03-20T05:47:50;31.90;;;19.45;;
2213;SDS011;1113;42.018;23.986;2023-03-20T05:50:18;35.95;;;24.02;;
2213;SDS011;1113;42.018;23.986;2023-03-20T05:52:45;33.63;;;22.35;;
2213;SDS011;1113;42.018;23.986;2023-03-20T05:55:12;33.50;;;21.95;;
2213;SDS011;1113;42.018;23.986;2023-03-20T05:57:39;29.17;;;20.52;;
2213;SDS011;1113;42.018;23.986;2023-03-20T06:00:07;35.42;;;24.48;;
2213;SDS011;1113;42.018;23.986;2023-03-20T06:02:34;36.97;;;25.70;;
2213;SDS011;1113;42.018;23.986;2023-03-20T06:05:01;62.30;;;35.83;;
2213;SDS011;1113;42.018;23.986;2023-03-20T06:07:30;42.05;;;26.27;;
2213;SDS011;1113;42.018;23.986;2023-03-20T06:09:56;31.80;;;19.55;;
2213;SDS011;1113;42.018;23.986;2023-03-20T06:12:23;30.17;;;20.27;;
2213;SDS011;1113;42.018;23.986;2023-03-20T06:14:50;36.90;;;24.35;;
2213;SDS011;1113;42.018;23.986;2023-03-20T06:17:17;39.42;;;27.00;;
2213;SDS011;1113;42.018;23.986;2023-03-20T06:19:43;43.58;;;27.42;;
2213;SDS011;1113;42.018;23.986;2023-03-20T06:22:10;41.95;;;29.25;;
2213;SDS011;1113;42.018;23.986;2023-03-20T06:24:38;48.97;;;33.67;;
2213;SDS011;1113;42.018;23.986;2023-03-20T06:27:05;43.88;;;30.67;;
2213;SDS011;1113;42.018;23.986;2023-03-20T06:29:32;46.47;;;32.22;;
2213;SDS011;1113;42.018;23.986;2023-03-20T06:31:59;50.17;;;32.50;;
2213;SDS011;1113;42.018;23.986;2023-03-20T06:34:25;44.42;;;29.45;;
2213;SDS011;1113;42.018;23.986;2023-03-20T06:36:52;41.38;;;29.13;;
2213;SDS011;1113;42.018;23.986;2023-03-20T06:39:19;44.90;;;29.63;;
2213;SDS011;1113;42.018;23.986;2023-03-20T06:41:47;40.08;;;27.98;;
2213;SDS011;1113;42.018;23.986;2023-03-20T06:44:14;38.08;;;28.02;;
2213;SDS011;1113;42.018;23.986;2023-03-20T06:46:41;38.47;;;26.52;;
2213;SDS011;1113;42.018;23.986;2023-03-20T06:49:08;38.25;;;27.30;;
2213;SDS011;1113;42.018;23.986;2023-03-20T06:51:35;38.95;;;28.10;;
2213;SDS011;1113;42.018;23.986;2023-03-20T06:54:02;40.83;;;28.50;;
2213;SDS011;1113;42.018;23.986;2023-03-20T06:56:29;41.95;;;27.75;;
2213;SDS011;1113;42.018;23.986;2023-03-20T06:58:57;40.15;;;29.35;;
2213;SDS011;1113;42.018;23.986;2023-03-20T07:01:24;40.60;;;28.05;;
2213;SDS011;1113;42.018;23.986;2023-03-20T07:03:51;32.55;;;23.88;;
2213;SDS011;1113;42.018;23.986;2023-03-20T07:06:19;28.75;;;22.35;;
2213;SDS011;1113;42.018;23.986;2023-03-20T07:08:45;25.83;;;19.42;;
2213;SDS011;1113;42.018;23.986;2023-03-20T07:11:12;34.53;;;20.98;;
2213;SDS011;1113;42.018;23.986;2023-03-20T07:13:39;29.15;;;20.00;;
2213;SDS011;1113;42.018;23.986;2023-03-20T07:16:08;39.60;;;21.27;;
2213;SDS011;1113;42.018;23.986;2023-03-20T07:18:35;29.73;;;18.08;;
2213;SDS011;1113;42.018;23.986;2023-03-20T07:21:04;22.38;;;17.35;;
2213;SDS011;1113;42.018;23.986;2023-03-20T07:23:32;29.83;;;19.48;;
2213;SDS011;1113;42.018;23.986;2023-03-20T07:25:59;21.83;;;16.58;;
2213;SDS011;1113;42.018;23.986;2023-03-20T07:28:26;24.58;;;20.05;;
2213;SDS011;1113;42.018;23.986;2023-03-20T07:30:53;25.35;;;18.50;;
2213;SDS011;1113;42.018;23.986;2023-03-20T07:33:22;22.10;;;17.17;;
2213;SDS011;1113;42.018;23.986;2023-03-20T07:35:50;21.02;;;14.98;;
2213;SDS011;1113;42.018;23.986;2023-03-20T07:38:18;30.23;;;21.23;;
2213;SDS011;1113;42.018;23.986;2023-03-20T07:40:45;29.70;;;22.17;;
2213;SDS011;1113;42.018;23.986;2023-03-20T07:43:13;25.70;;;18.70;;
2213;SDS011;1113;42.018;23.986;2023-03-20T07:45:39;19.63;;;16.17;;
2213;SDS011;1113;42.018;23.986;2023-03-20T07:48:06;24.20;;;16.77;;
2213;SDS011;1113;42.018;23.986;2023-03-20T07:50:35;26.85;;;17.83;;
2213;SDS011;1113;42.018;23.986;2023-03-20T07:53:02;22.55;;;17.25;;
2213;SDS011;1113;42.018;23.986;2023-03-20T07:55:28;18.50;;;15.33;;
2213;SDS011;1113;42.018;23.986;2023-03-20T07:57:55;20.77;;;16.77;;
2213;SDS011;1113;42.018;23.986;2023-03-20T08:16:33;21.57;;;17.30;;
2213;SDS011;1113;42.018;23.986;2023-03-20T08:19:00;19.90;;;16.20;;
2213;SDS011;1113;42.018;23.986;2023-03-20T08:21:29;18.40;;;12.33;;
2213;SDS011;1113;42.018;23.986;2023-03-20T08:23:56;20.37;;;14.47;;
2213;SDS011;1113;42.018;23.986;2023-03-20T08:26:24;13.53;;;8.60;;
2213;SDS011;1113;42.018;23.986;2023-03-20T08:28:50;12.93;;;9.43;;
2213;SDS011;1113;42.018;23.986;2023-03-20T08:31:18;8.70;;;7.23;;
2213;SDS011;1113;42.018;23.986;2023-03-20T08:33:46;9.23;;;7.07;;
2213;SDS011;1113;42.018;23.986;2023-03-20T08:36:13;13.33;;;6.93;;
2213;SDS011;1113;42.018;23.986;2023-03-20T08:38:43;10.53;;;8.27;;
2213;SDS011;1113;42.018;23.986;2023-03-20T08:41:10;10.00;;;5.90;;
2213;SDS011;1113;42.018;23.986;2023-03-20T08:43:37;10.60;;;7.37;;
2213;SDS011;1113;42.018;23.986;2023-03-20T08:46:04;15.67;;;9.60;;
2213;SDS011;1113;42.018;23.986;2023-03-20T08:48:31;13.47;;;9.47;;
2213;SDS011;1113;42.018;23.986;2023-03-20T08:50:59;11.90;;;7.97;;
2213;SDS011;1113;42.018;23.986;2023-03-20T08:53:26;9.53;;;6.40;;
2213;SDS011;1113;42.018;23.986;2023-03-20T08:55:53;10.53;;;6.47;;
2213;SDS011;1113;42.018;23.986;2023-03-20T08:58:20;9.60;;;5.90;;
2213;SDS011;1113;42.018;23.986;2023-03-20T09:00:48;11.70;;;9.50;;
2213;SDS011;1113;42.018;23.986;2023-03-20T09:03:16;13.93;;;8.77;;
2213;SDS011;1113;42.018;23.986;2023-03-20T09:05:45;12.23;;;7.00;;
2213;SDS011;1113;42.018;23.986;2023-03-20T09:08:14;10.50;;;7.13;;
2213;SDS011;1113;42.018;23.986;2023-03-20T09:10:41;12.70;;;7.87;;
2213;SDS011;1113;42.018;23.986;2023-03-20T09:13:08;10.83;;;7.60;;
2213;SDS011;1113;42.018;23.986;2023-03-20T09:15:35;9.13;;;7.60;;
2213;SDS011;1113;42.018;23.986;2023-03-20T09:18:01;10.70;;;7.77;;
2213;SDS011;1113;42.018;23.986;2023-03-20T09:20:28;11.40;;;7.90;;
2213;SDS011;1113;42.018;23.986;2023-03-20T09:22:55;9.50;;;6.23;;
2213;SDS011;1113;42.018;23.986;2023-03-20T09:25:24;8.80;;;5.35;;
2213;SDS011;1113;42.018;23.986;2023-03-20T09:27:51;8.23;;;5.80;;
2213;SDS011;1113;42.018;23.986;2023-03-20T09:30:19;9.33;;;5.20;;
2213;SDS011;1113;42.018;23.986;2023-03-20T09:32:46;5.57;;;4.50;;
2213;SDS011;1113;42.018;23.986;2023-03-20T09:35:13;6.00;;;4.60;;
2213;SDS011;1113;42.018;23.986;2023-03-20T09:37:40;7.50;;;4.83;;
2213;SDS011;1113;42.018;23.986;2023-03-20T09:40:09;5.60;;;4.30;;
2213;SDS011;1113;42.018;23.986;2023-03-20T09:42:50;4.97;;;4.20;;
2213;SDS011;1113;42.018;23.986;2023-03-20T09:45:23;7.20;;;5.67;;
2213;SDS011;1113;42.018;23.986;2023-03-20T09:48:03;6.93;;;5.03;;
2213;SDS011;1113;42.018;23.986;2023-03-20T09:50:37;5.33;;;4.57;;
2213;SDS011;1113;42.018;23.986;2023-03-20T09:53:12;5.37;;;4.00;;
2213;SDS011;1113;42.018;23.986;2023-03-20T09:55:46;4.37;;;3.70;;
2213;SDS011;1113;42.018;23.986;2023-03-20T09:58:17;5.40;;;4.07;;
2213;SDS011;1113;42.018;23.986;2023-03-20T10:00:47;5.50;;;3.43;;
2213;SDS011;1113;42.018;23.986;2023-03-20T10:03:16;6.40;;;4.63;;
2213;SDS011;1113;42.018;23.986;2023-03-20T10:05:47;3.80;;;3.17;;
2213;SDS011;1113;42.018;23.986;2023-03-20T10:08:20;4.57;;;3.20;;
2213;SDS011;1113;42.018;23.986;2023-03-20T10:10:51;4.00;;;2.47;;
2213;SDS011;1113;42.018;23.986;2023-03-20T10:13:37;4.70;;;2.50;;
2213;SDS011;1113;42.018;23.986;2023-03-20T10:16:14;3.70;;;2.70;;
2213;SDS011;1113;42.018;23.986;2023-03-20T10:18:48;3.47;;;2.60;;
2213;SDS011;1113;42.018;23.986;2023-03-20T10:21:23;5.77;;;2.50;;
2213;SDS011;1113;42.018;23.986;2023-03-20T10:23:59;5.33;;;2.40;;
2213;SDS011;1113;42.018;23.986;2023-03-20T10:26:29;5.23;;;3.20;;
2213;SDS011;1113;42.018;23.986;2023-03-20T10:29:00;2.97;;;2.30;;
2213;SDS011;1113;42.018;23.986;2023-03-20T10:31:33;3.30;;;2.57;;
2213;SDS011;1113;42.018;23.986;2023-03-20T10:34:14;3.90;;;2.53;;
2213;SDS011;1113;42.018;23.986;2023-03-20T10:36:53;3.67;;;2.70;;
2213;SDS011;1113;42.018;23.986;2023-03-20T10:39:33;3.03;;;2.10;;
2213;SDS011;1113;42.018;23.986;2023-03-20T10:42:12;2.93;;;2.20;;
2213;SDS011;1113;42.018;23.986;2023-03-20T10:44:44;3.70;;;2.00;;
2213;SDS011;1113;42.018;23.986;2023-03-20T10:47:16;4.10;;;2.20;;
2213;SDS011;1113;42.018;23.986;2023-03-20T10:49:47;3.80;;;2.43;;
2213;SDS011;1113;42.018;23.986;2023-03-20T10:52:18;2.60;;;1.93;;
2213;SDS011;1113;42.018;23.986;2023-03-20T10:54:48;2.80;;;2.20;;
2213;SDS011;1113;42.018;23.986;2023-03-20T10:57:19;3.93;;;2.37;;
2213;SDS011;1113;42.018;23.986;2023-03-20T10:59:50;4.40;;;2.00;;
2213;SDS011;1113;42.018;23.986;2023-03-20T11:02:18;4.90;;;2.10;;
2213;SDS011;1113;42.018;23.986;2023-03-20T11:04:47;2.50;;;1.80;;
2213;SDS011;1113;42.018;23.986;2023-03-20T11:07:16;4.80;;;1.90;;
2213;SDS011;1113;42.018;23.986;2023-03-20T11:09:57;3.90;;;2.10;;
2213;SDS011;1113;42.018;23.986;2023-03-20T11:12:35;2.40;;;1.53;;
2213;SDS011;1113;42.018;23.986;2023-03-20T11:15:13;2.50;;;1.53;;
2213;SDS011;1113;42.018;23.986;2023-03-20T11:17:49;2.50;;;1.73;;
2213;SDS011;1113;42.018;23.986;2023-03-20T11:20:20;2.67;;;1.90;;
2213;SDS011;1113;42.018;23.986;2023-03-20T11:22:48;2.50;;;1.60;;
2213;SDS011;1113;42.018;23.986;2023-03-20T11:25:22;3.63;;;2.50;;
2213;SDS011;1113;42.018;23.986;2023-03-20T11:27:54;3.10;;;1.67;;
2213;SDS011;1113;42.018;23.986;2023-03-20T11:30:22;3.10;;;2.20;;
2213;SDS011;1113;42.018;23.986;2023-03-20T11:32:49;2.60;;;2.00;;
2213;SDS011;1113;42.018;23.986;2023-03-20T11:35:21;2.90;;;2.30;;
2213;SDS011;1113;42.018;23.986;2023-03-20T11:38:05;2.83;;;1.80;;
2213;SDS011;1113;42.018;23.986;2023-03-20T11:40:35;4.83;;;2.40;;
2213;SDS011;1113;42.018;23.986;2023-03-20T11:43:07;3.60;;;2.20;;
2213;SDS011;1113;42.018;23.986;2023-03-20T11:45:39;3.10;;;2.20;;
2213;SDS011;1113;42.018;23.986;2023-03-20T11:48:15;5.73;;;2.43;;
2213;SDS011;1113;42.018;23.986;2023-03-20T11:50:45;4.77;;;2.43;;
2213;SDS011;1113;42.018;23.986;2023-03-20T11:53:22;4.40;;;2.37;;
2213;SDS011;1113;42.018;23.986;2023-03-20T11:55:57;3.27;;;2.40;;
2213;SDS011;1113;42.018;23.986;2023-03-20T11:58:28;5.30;;;3.43;;
2213;SDS011;1113;42.018;23.986;2023-03-20T12:00:56;4.23;;;2.60;;
2213;SDS011;1113;42.018;23.986;2023-03-20T12:03:36;5.53;;;2.60;;
2213;SDS011;1113;42.018;23.986;2023-03-20T12:06:07;3.70;;;2.63;;
2213;SDS011;1113;42.018;23.986;2023-03-20T12:08:41;3.47;;;2.67;;
2213;SDS011;1113;42.018;23.986;2023-03-20T12:11:33;5.00;;;3.33;;
2213;SDS011;1113;42.018;23.986;2023-03-20T12:14:07;4.17;;;3.40;;
2213;SDS011;1113;42.018;23.986;2023-03-20T12:16:43;6.67;;;3.53;;
2213;SDS011;1113;42.018;23.986;2023-03-20T12:19:14;4.70;;;3.90;;
2213;SDS011;1113;42.018;23.986;2023-03-20T12:21:47;6.90;;;3.77;;
2213;SDS011;1113;42.018;23.986;2023-03-20T12:24:25;3.43;;;2.50;;
2213;SDS011;1113;42.018;23.986;2023-03-20T12:26:59;4.57;;;2.47;;
2213;SDS011;1113;42.018;23.986;2023-03-20T12:29:35;6.00;;;3.27;;
2213;SDS011;1113;42.018;23.986;2023-03-20T12:32:09;4.20;;;3.17;;
2213;SDS011;1113;42.018;23.986;2023-03-20T12:34:42;4.40;;;3.30;;
2213;SDS011;1113;42.018;23.986;2023-03-20T12:37:12;5.07;;;3.53;;
2213;SDS011;1113;42.018;23.986;2023-03-20T12:39:44;5.33;;;3.27;;
2213;SDS011;1113;42.018;23.986;2023-03-20T12:42:17;4.90;;;3.50;;
2213;SDS011;1113;42.018;23.986;2023-03-20T12:44:58;4.30;;;3.57;;
2213;SDS011;1113;42.018;23.986;2023-03-20T12:47:41;5.60;;;3.60;;
2213;SDS011;1113;42.018;23.986;2023-03-20T12:50:19;3.87;;;3.13;;
2213;SDS011;1113;42.018;23.986;2023-03-20T12:52:54;4.73;;;2.97;;
2213;SDS011;1113;42.018;23.986;2023-03-20T12:55:41;5.40;;;3.60;;
2213;SDS011;1113;42.018;23.986;2023-03-20T12:58:18;4.73;;;2.53;;
2213;SDS011;1113;42.018;23.986;2023-03-20T13:00:56;5.50;;;3.10;;
2213;SDS011;1113;42.018;23.986;2023-03-20T13:03:34;4.10;;;2.50;;
2213;SDS011;1113;42.018;23.986;2023-03-20T13:06:16;6.00;;;2.83;;
2213;SDS011;1113;42.018;23.986;2023-03-20T13:11:55;4.30;;;3.17;;
2213;SDS011;1113;42.018;23.986;2023-03-20T13:14:30;7.27;;;3.07;;
2213;SDS011;1113;42.018;23.986;2023-03-20T13:17:04;4.00;;;2.70;;
2213;SDS011;1113;42.018;23.986;2023-03-20T13:19:43;3.80;;;2.90;;
2213;SDS011;1113;42.018;23.986;2023-03-20T13:22:18;3.23;;;2.60;;
2213;SDS011;1113;42.018;23.986;2023-03-20T13:24:52;6.57;;;3.10;;
2213;SDS011;1113;42.018;23.986;2023-03-20T13:27:28;4.87;;;2.43;;
2213;SDS011;1113;42.018;23.986;2023-03-20T13:30:00;5.77;;;3.23;;
2213;SDS011;1113;42.018;23.986;2023-03-20T13:32:37;5.13;;;2.80;;
2213;SDS011;1113;42.018;23.986;2023-03-20T13:35:18;4.40;;;3.40;;
2213;SDS011;1113;42.018;23.986;2023-03-20T13:37:53;6.40;;;3.30;;
2213;SDS011;1113;42.018;23.986;2023-03-20T13:40:23;5.80;;;3.40;;
2213;SDS011;1113;42.018;23.986;2023-03-20T13:42:54;5.53;;;2.90;;
2213;SDS011;1113;42.018;23.986;2023-03-20T13:45:28;4.47;;;3.00;;
2213;SDS011;1113;42.018;23.986;2023-03-20T13:48:01;10.70;;;5.70;;
2213;SDS011;1113;42.018;23.986;2023-03-20T13:50:38;9.77;;;6.73;;
2213;SDS011;1113;42.018;23.986;2023-03-20T13:53:13;94.30;;;12.23;;
2213;SDS011;1113;42.018;23.986;2023-03-20T13:55:51;6.30;;;3.77;;
2213;SDS011;1113;42.018;23.986;2023-03-20T13:58:34;5.30;;;3.17;;
2213;SDS011;1113;42.018;23.986;2023-03-20T14:01:21;6.70;;;4.10;;
2213;SDS011;1113;42.018;23.986;2023-03-20T14:03:51;5.20;;;3.53;;
2213;SDS011;1113;42.018;23.986;2023-03-20T14:09:27;5.30;;;4.00;;
2213;SDS011;1113;42.018;23.986;2023-03-20T14:11:58;7.73;;;3.83;;
2213;SDS011;1113;42.018;23.986;2023-03-20T14:14:30;6.13;;;4.70;;
2213;SDS011;1113;42.018;23.986;2023-03-20T14:17:01;6.60;;;5.90;;
2213;SDS011;1113;42.018;23.986;2023-03-20T14:19:34;7.97;;;5.27;;
2213;SDS011;1113;42.018;23.986;2023-03-20T14:22:03;4.70;;;3.67;;
2213;SDS011;1113;42.018;23.986;2023-03-20T14:24:33;5.90;;;4.20;;
2213;SDS011;1113;42.018;23.986;2023-03-20T14:27:05;6.13;;;3.70;;
2213;SDS011;1113;42.018;23.986;2023-03-20T14:29:33;5.30;;;4.40;;
2213;SDS011;1113;42.018;23.986;2023-03-20T14:35:23;5.03;;;3.97;;
2213;SDS011;1113;42.018;23.986;2023-03-20T14:38:08;8.83;;;5.70;;
2213;SDS011;1113;42.018;23.986;2023-03-20T14:40:48;24.73;;;7.40;;
2213;SDS011;1113;42.018;23.986;2023-03-20T14:43:22;21.37;;;8.20;;
2213;SDS011;1113;42.018;23.986;2023-03-20T14:46:03;5.20;;;4.07;;
2213;SDS011;1113;42.018;23.986;2023-03-20T14:48:34;8.73;;;5.80;;
2213;SDS011;1113;42.018;23.986;2023-03-20T14:51:11;5.83;;;4.00;;
2213;SDS011;1113;42.018;23.986;2023-03-20T14:53:53;6.10;;;3.83;;
2213;SDS011;1113;42.018;23.986;2023-03-20T14:56:27;6.60;;;4.30;;
2213;SDS011;1113;42.018;23.986;2023-03-20T14:58:59;9.20;;;6.00;;
2213;SDS011;1113;42.018;23.986;2023-03-20T15:01:43;7.37;;;4.37;;
2213;SDS011;1113;42.018;23.986;2023-03-20T15:04:19;7.70;;;5.20;;
2213;SDS011;1113;42.018;23.986;2023-03-20T15:06:51;12.20;;;5.90;;
2213;SDS011;1113;42.018;23.986;2023-03-20T15:09:25;7.30;;;4.70;;
2213;SDS011;1113;42.018;23.986;2023-03-20T15:11:57;6.17;;;4.53;;
2213;SDS011;1113;42.018;23.986;2023-03-20T15:14:30;10.87;;;5.13;;
2213;SDS011;1113;42.018;23.986;2023-03-20T15:17:01;8.87;;;4.50;;
2213;SDS011;1113;42.018;23.986;2023-03-20T15:19:31;9.20;;;4.50;;
2213;SDS011;1113;42.018;23.986;2023-03-20T15:22:09;5.60;;;4.70;;
2213;SDS011;1113;42.018;23.986;2023-03-20T15:24:40;8.07;;;5.10;;
2213;SDS011;1113;42.018;23.986;2023-03-20T15:27:10;7.23;;;4.80;;
2213;SDS011;1113;42.018;23.986;2023-03-20T15:29:37;5.60;;;4.43;;
2213;SDS011;1113;42.018;23.986;2023-03-20T15:32:12;9.10;;;4.80;;
2213;SDS011;1113;42.018;23.986;2023-03-20T15:34:38;6.93;;;4.93;;
2213;SDS011;1113;42.018;23.986;2023-03-20T15:37:08;12.27;;;5.90;;
2213;SDS011;1113;42.018;23.986;2023-03-20T15:39:43;7.83;;;7.00;;
2213;SDS011;1113;42.018;23.986;2023-03-20T15:42:14;13.10;;;7.10;;
2213;SDS011;1113;42.018;23.986;2023-03-20T15:44:42;8.60;;;6.33;;